Time;durP1;ratioP1;P1;durP2;ratioP2;P2;SDS_P1;SDS_P2;PMS_P1;PMS_P2;Temp;Humidity;BMP_temperature;BMP_pressure;BME280_temperature;BME280_humidity;BME280_pressure;Samples;Min_cycle;Max_cycle;Signal;HPM_P1;HPM_P2
2023/08/04 00:01:42;;;;;;;;;;;;;;;;;;;;;
2023/08/04 00:04:17;;;;;;;18.70;5.72;;;;;;;12.98;100.00;100864.44;4864272;29;20042;-96
2023/08/04 00:06:54;;;;;;;19.80;5.57;;;;;;;12.94;100.00;100864.06;4849393;29;20034;-96
2023/08/04 00:09:32;;;;;;;;;;;;;;;;;;;;;
2023/08/04 00:12:03;;;;;;;16.30;5.35;;;;;;;12.87;100.00;100866.03;4849517;29;20034;-96
2023/08/04 00:14:38;;;;;;;15.73;5.65;;;;;;;12.84;100.00;100869.22;4832334;29;20033;-96
2023/08/04 00:17:11;;;;;;;19.88;6.97;;;;;;;12.80;100.00;100870.78;4846651;29;20030;-96
2023/08/04 00:20:02;;;;;;;;;;;;;;;;;;;;;
2023/08/04 00:22:34;;;;;;;15.20;5.45;;;;;;;12.72;100.00;100871.09;4863426;29;20059;-96
2023/08/04 00:25:09;;;;;;;22.02;6.53;;;;;;;12.70;100.00;100870.50;4861958;29;20053;-95
2023/08/04 00:27:46;;;;;;;18.33;5.90;;;;;;;12.68;100.00;100886.19;4862348;29;20029;-95
2023/08/04 00:30:17;;;;;;;22.95;5.85;;;;;;;12.63;100.00;100878.72;4861859;29;20131;-95
2023/08/04 00:32:48;;;;;;;21.00;6.03;;;;;;;12.60;100.00;100871.03;4832531;29;20055;-96
2023/08/04 00:35:13;;;;;;;18.30;6.55;;;;;;;12.57;100.00;100885.09;4846963;29;20021;-96
2023/08/04 00:37:42;;;;;;;21.23;6.47;;;;;;;12.54;100.00;100889.09;4846357;29;20471;-95
2023/08/04 00:40:24;;;;;;;20.38;6.60;;;;;;;12.53;100.00;100889.31;4846625;29;20056;-96
2023/08/04 00:43:00;;;;;;;17.03;6.13;;;;;;;12.50;100.00;100889.78;4846096;29;20033;-96
2023/08/04 00:45:29;;;;;;;19.42;6.20;;;;;;;12.49;100.00;100894.41;4861128;29;20041;-89
2023/08/04 00:47:55;;;;;;;21.90;7.15;;;;;;;12.48;100.00;100897.34;4860975;29;20129;-86
2023/08/04 00:50:20;;;;;;;15.77;6.67;;;;;;;12.45;100.00;100890.47;4845309;29;20060;-87
2023/08/04 00:52:48;;;;;;;24.80;7.25;;;;;;;12.43;100.00;100906.16;4845710;29;20356;-87
2023/08/04 00:55:15;;;;;;;16.80;7.30;;;;;;;12.42;100.00;100893.63;4861238;29;20042;-87
2023/08/04 00:57:43;;;;;;;24.23;7.63;;;;;;;12.39;100.00;100903.06;4845136;29;20033;-87
2023/08/04 01:00:09;;;;;;;16.05;7.10;;;;;;;12.36;100.00;100900.00;4860166;29;20410;-87
2023/08/04 01:02:35;;;;;;;21.30;7.32;;;;;;;12.35;100.00;100909.19;4860080;29;20406;-87
2023/08/04 01:05:02;;;;;;;20.17;7.17;;;;;;;12.33;100.00;100906.69;4845150;29;20034;-87
2023/08/04 01:07:32;;;;;;;17.55;6.95;;;;;;;12.33;100.00;100916.72;4860365;29;20124;-87
2023/08/04 01:10:25;;;;;;;26.10;6.97;;;;;;;12.30;100.00;100915.31;4860329;29;20039;-87
2023/08/04 01:13:03;;;;;;;22.63;7.35;;;;;;;12.26;100.00;100914.91;4845255;29;20132;-87
2023/08/04 01:15:30;;;;;;;20.60;7.00;;;;;;;12.24;100.00;100906.16;4861012;29;20040;-87
2023/08/04 01:17:56;;;;;;;21.88;7.03;;;;;;;12.22;100.00;100915.59;4860302;29;20026;-87
2023/08/04 01:20:26;;;;;;;21.10;6.57;;;;;;;12.20;100.00;100918.53;4845219;29;20125;-87
2023/08/04 01:22:52;;;;;;;21.17;7.72;;;;;;;12.21;100.00;100919.38;4860138;29;20048;-87
2023/08/04 01:25:22;;;;;;;18.70;6.70;;;;;;;12.23;100.00;100920.81;4844519;29;20128;-87
2023/08/04 01:27:55;;;;;;;22.90;7.30;;;;;;;12.26;100.00;100914.09;4845204;29;20544;-87
2023/08/04 01:30:22;;;;;;;17.27;6.47;;;;;;;12.28;100.00;100912.81;4845415;29;20078;-87
2023/08/04 01:32:48;;;;;;;18.10;7.70;;;;;;;12.33;100.00;100927.63;4860204;29;20038;-87
2023/08/04 01:35:14;;;;;;;19.80;7.85;;;;;;;12.34;100.00;100926.56;4845139;29;20486;-86
2023/08/04 01:37:40;;;;;;;20.90;7.17;;;;;;;12.36;100.00;100928.00;4844729;29;20485;-87
2023/08/04 01:40:06;;;;;;;23.35;7.65;;;;;;;12.40;100.00;100929.25;4859767;29;20049;-87
2023/08/04 01:42:32;;;;;;;22.52;7.72;;;;;;;12.43;100.00;100934.22;4860071;29;20044;-87
2023/08/04 01:44:57;;;;;;;20.20;7.60;;;;;;;12.45;100.00;100931.28;4845415;29;20041;-87
2023/08/04 01:47:23;;;;;;;18.17;6.83;;;;;;;12.45;100.00;100928.56;4844625;29;20034;-86
2023/08/04 01:49:48;;;;;;;15.00;7.20;;;;;;;12.48;100.00;100935.44;4844491;29;20286;-86
2023/08/04 01:52:14;;;;;;;23.77;7.03;;;;;;;12.50;100.00;100936.03;4861066;29;20356;-87
2023/08/04 01:54:39;;;;;;;19.20;6.67;;;;;;;12.51;100.00;100938.53;4859958;29;20040;-87
2023/08/04 01:57:08;;;;;;;20.77;7.30;;;;;;;12.55;100.00;100941.63;4844180;29;20044;-87
2023/08/04 01:59:33;;;;;;;19.60;6.47;;;;;;;12.56;100.00;100935.13;4859635;29;20509;-87
2023/08/04 02:01:59;;;;;;;17.17;6.75;;;;;;;12.58;100.00;100936.56;4830108;29;20042;-85
2023/08/04 02:04:24;;;;;;;19.23;8.23;;;;;;;12.59;100.00;100937.38;4859397;29;20049;-87
2023/08/04 02:06:50;;;;;;;18.73;6.63;;;;;;;12.62;100.00;100940.50;4861069;29;20025;-87
2023/08/04 02:09:15;;;;;;;21.20;7.17;;;;;;;12.63;100.00;100944.06;4845319;29;20045;-87
2023/08/04 02:11:43;;;;;;;19.10;7.00;;;;;;;12.64;100.00;100949.28;4844256;29;20368;-87
2023/08/04 02:14:09;;;;;;;20.43;6.60;;;;;;;12.66;100.00;100948.22;4831307;29;20034;-87
2023/08/04 02:16:34;;;;;;;15.10;6.95;;;;;;;12.64;100.00;100946.53;4862901;29;20137;-87
2023/08/04 02:19:10;;;;;;;17.23;6.57;;;;;;;12.63;100.00;100944.06;4863233;29;20058;-87
2023/08/04 02:21:36;;;;;;;22.23;7.13;;;;;;;12.62;100.00;100942.38;4847914;29;20041;-87
2023/08/04 02:24:02;;;;;;;13.45;6.45;;;;;;;12.61;100.00;100949.72;4862834;29;20105;-87
2023/08/04 02:26:28;;;;;;;21.85;6.50;;;;;;;12.59;100.00;100954.56;4863988;29;20448;-87
2023/08/04 02:28:54;;;;;;;14.60;6.80;;;;;;;12.59;100.00;100949.13;4864061;29;20033;-86
2023/08/04 02:31:22;;;;;;;15.45;6.95;;;;;;;12.59;100.00;100954.56;4848116;29;20076;-86
2023/08/04 02:33:47;;;;;;;20.27;6.93;;;;;;;12.55;100.00;100953.34;4862931;29;20128;-87
2023/08/04 02:36:14;;;;;;;19.53;6.43;;;;;;;12.54;100.00;100950.88;4847614;29;20065;-87
2023/08/04 02:38:42;;;;;;;19.33;6.65;;;;;;;12.50;100.00;100955.91;4862820;29;20033;-87
2023/08/04 02:41:09;;;;;;;17.90;6.78;;;;;;;12.51;100.00;100959.47;4847360;29;20546;-86
2023/08/04 02:43:35;;;;;;;18.13;6.70;;;;;;;12.48;100.00;100965.38;4863299;29;20033;-87
2023/08/04 02:46:01;;;;;;;22.77;7.63;;;;;;;12.48;100.00;100968.91;4863943;29;20467;-87
2023/08/04 02:48:26;;;;;;;19.53;6.77;;;;;;;12.48;100.00;100966.19;4831557;29;20463;-87
2023/08/04 02:51:07;;;;;;;14.40;6.40;;;;;;;12.47;100.00;100967.25;4847127;29;20499;-87
2023/08/04 02:53:34;;;;;;;17.13;6.80;;;;;;;12.47;100.00;100961.81;4847388;29;20033;-87
2023/08/04 02:56:06;;;;;;;24.00;7.13;;;;;;;12.48;100.00;100959.94;4831683;29;20097;-87
2023/08/04 02:58:32;;;;;;;15.13;6.50;;;;;;;12.49;100.00;100961.56;4864314;29;20080;-87
2023/08/04 03:00:57;;;;;;;22.97;7.17;;;;;;;12.49;100.00;100954.25;4846962;29;20491;-87
2023/08/04 03:03:23;;;;;;;23.67;7.38;;;;;;;12.51;100.00;100957.59;4832198;29;20033;-86
2023/08/04 03:05:48;;;;;;;19.93;6.93;;;;;;;12.53;100.00;100960.91;4831671;29;20038;-87
2023/08/04 03:08:14;;;;;;;18.70;7.40;;;;;;;12.55;100.00;100956.06;4831427;29;20159;-86
2023/08/04 03:10:41;;;;;;;17.80;6.80;;;;;;;12.58;100.00;100966.50;4831716;29;20040;-86
2023/08/04 03:13:08;;;;;;;20.65;6.88;;;;;;;12.59;100.00;100968.19;4862327;29;20093;-87
2023/08/04 03:15:34;;;;;;;19.38;7.18;;;;;;;12.59;100.00;100962.75;4861924;29;20039;-87
2023/08/04 03:17:59;;;;;;;17.83;6.82;;;;;;;12.59;100.00;100968.19;4847572;29;20033;-86
2023/08/04 03:20:25;;;;;;;19.92;7.15;;;;;;;12.59;100.00;100964.59;4847028;29;20040;-86
2023/08/04 03:22:50;;;;;;;23.10;7.20;;;;;;;12.59;100.00;100964.59;4832433;29;20050;-87
2023/08/04 03:25:15;;;;;;;20.63;6.80;;;;;;;12.60;100.00;100972.53;4845572;29;20055;-87
2023/08/04 03:27:41;;;;;;;15.65;6.88;;;;;;;12.61;100.00;100967.97;4847384;29;20041;-87
2023/08/04 03:30:07;;;;;;;16.53;6.50;;;;;;;12.66;100.00;100973.53;4831257;29;20391;-87
2023/08/04 03:32:32;;;;;;;15.77;6.13;;;;;;;12.67;100.00;100979.81;4847039;29;20386;-86
2023/08/04 03:34:58;;;;;;;17.73;6.20;;;;;;;12.70;100.00;100974.75;4846550;29;20033;-86
2023/08/04 03:37:23;;;;;;;14.60;6.70;;;;;;;12.73;100.00;100981.66;4846618;29;20480;-87
2023/08/04 03:39:49;;;;;;;19.93;6.17;;;;;;;12.74;100.00;100986.88;4861441;29;20120;-88
2023/08/04 03:42:14;;;;;;;16.73;6.87;;;;;;;12.75;100.00;100985.78;4862989;29;20033;-88
2023/08/04 03:44:40;;;;;;;19.05;6.82;;;;;;;12.74;100.00;100980.56;4846372;29;20483;-88
2023/08/04 03:47:05;;;;;;;18.57;6.87;;;;;;;12.73;100.00;100977.03;4830875;29;20049;-88
2023/08/04 03:49:31;;;;;;;18.67;6.60;;;;;;;12.71;100.00;100983.75;4846147;29;20034;-88
2023/08/04 03:51:56;;;;;;;15.77;6.67;;;;;;;12.67;100.00;100980.66;4831202;29;20064;-88
2023/08/04 03:54:22;;;;;;;15.70;6.87;;;;;;;12.66;100.00;100975.44;4830755;29;20037;-88
2023/08/04 03:56:47;;;;;;;21.13;7.00;;;;;;;12.63;100.00;100990.31;4831428;29;20073;-89
2023/08/04 03:59:13;;;;;;;15.97;7.13;;;;;;;12.62;100.00;100989.50;4830669;29;20290;-87
2023/08/04 04:01:38;;;;;;;14.40;6.37;;;;;;;12.60;100.00;100991.59;4846138;29;20029;-88
2023/08/04 04:04:04;;;;;;;13.05;6.45;;;;;;;12.58;100.00;100985.56;4846135;29;20486;-88
2023/08/04 04:06:29;;;;;;;15.47;6.53;;;;;;;12.55;100.00;100987.88;4845696;29;20406;-88
2023/08/04 04:08:55;;;;;;;16.17;7.17;;;;;;;12.51;100.00;100989.41;4860920;29;20036;-88
2023/08/04 04:11:20;;;;;;;21.83;7.23;;;;;;;12.48;100.00;100992.59;4861452;29;20030;-88
2023/08/04 04:13:46;;;;;;;17.70;6.90;;;;;;;12.43;100.00;100985.06;4845981;29;20124;-88
2023/08/04 04:16:11;;;;;;;17.37;6.93;;;;;;;12.38;100.00;100991.19;4861101;29;20054;-88
2023/08/04 04:18:37;;;;;;;16.23;6.83;;;;;;;12.37;100.00;100997.72;4860762;29;20026;-88
2023/08/04 04:21:02;;;;;;;18.50;7.22;;;;;;;12.32;100.00;100994.81;4829881;29;20518;-88
2023/08/04 04:23:28;;;;;;;18.80;6.80;;;;;;;12.30;100.00;101007.81;4845463;29;20037;-88
2023/08/04 04:25:53;;;;;;;17.50;7.57;;;;;;;12.27;100.00;101011.00;4830784;29;20053;-89
2023/08/04 04:28:19;;;;;;;16.40;7.23;;;;;;;12.23;100.00;101005.13;4845322;29;20041;-88
2023/08/04 04:30:45;;;;;;;19.63;7.38;;;;;;;12.24;100.00;101006.81;4845182;29;20334;-89
2023/08/04 04:33:11;;;;;;;19.52;7.43;;;;;;;12.22;100.00;101003.50;4846257;29;20044;-88
2023/08/04 04:35:36;;;;;;;18.45;7.50;;;;;;;12.20;100.00;101002.88;4860759;29;20033;-88
2023/08/04 04:38:02;;;;;;;14.17;7.30;;;;;;;12.20;100.00;101007.50;4860345;29;20053;-88
2023/08/04 04:40:30;;;;;;;17.73;7.27;;;;;;;12.18;100.00;101010.44;4845646;29;20037;-88
2023/08/04 04:42:55;;;;;;;18.20;7.97;;;;;;;12.18;100.00;101007.72;4861390;29;20038;-88
2023/08/04 04:45:21;;;;;;;18.57;7.53;;;;;;;12.14;100.00;101001.03;4860750;29;20089;-88
2023/08/04 04:47:46;;;;;;;17.63;6.80;;;;;;;12.13;100.00;101014.88;4830981;29;20064;-87
2023/08/04 04:50:12;;;;;;;17.33;7.35;;;;;;;12.14;100.00;101020.09;4844851;29;20053;-87
2023/08/04 04:52:37;;;;;;;24.30;7.67;;;;;;;12.16;100.00;101012.53;4861585;29;20053;-88
2023/08/04 04:55:04;;;;;;;20.70;7.50;;;;;;;12.20;100.00;101021.09;4861481;29;20041;-88
2023/08/04 04:57:31;;;;;;;24.58;7.68;;;;;;;12.22;100.00;101021.69;4860551;29;20029;-88
2023/08/04 04:59:56;;;;;;;19.92;7.05;;;;;;;12.27;100.00;101016.44;4861009;29;20137;-88
2023/08/04 05:02:24;;;;;;;19.63;6.97;;;;;;;12.37;100.00;101032.22;4845795;29;20033;-88
2023/08/04 05:04:53;;;;;;;19.20;7.90;;;;;;;12.46;100.00;101029.00;4860198;29;20487;-88
2023/08/04 05:07:18;;;;;;;14.85;6.75;;;;;;;12.59;100.00;101030.78;4844834;29;20033;-88
2023/08/04 05:09:43;;;;;;;19.10;7.10;;;;;;;12.68;100.00;101031.34;4845628;29;20090;-88
2023/08/04 05:12:09;;;;;;;17.00;7.20;;;;;;;12.78;100.00;101039.81;4861260;29;20487;-88
2023/08/04 05:14:37;;;;;;;13.85;7.00;;;;;;;12.88;100.00;101039.28;4844873;29;20033;-88
2023/08/04 05:17:02;;;;;;;22.80;7.67;;;;;;;12.94;100.00;101041.09;4844859;29;20509;-88
2023/08/04 05:19:30;;;;;;;17.40;6.68;;;;;;;13.02;100.00;101039.13;4845559;29;20132;-88
2023/08/04 05:21:55;;;;;;;18.75;6.88;;;;;;;13.12;100.00;101050.31;4860219;29;20033;-88
2023/08/04 05:24:21;;;;;;;14.97;7.07;;;;;;;13.20;100.00;101041.84;4845203;29;20049;-88
2023/08/04 05:26:48;;;;;;;12.80;6.80;;;;;;;13.31;100.00;101051.97;4844514;29;20029;-88
2023/08/04 05:29:14;;;;;;;19.23;7.60;;;;;;;13.39;100.00;101050.03;4845167;29;20041;-88
2023/08/04 05:31:39;;;;;;;15.33;7.30;;;;;;;13.53;100.00;101058.88;4861049;29;20041;-88
2023/08/04 05:34:08;;;;;;;14.90;7.20;;;;;;;13.67;100.00;101058.47;4861708;29;20030;-88
2023/08/04 05:36:33;;;;;;;17.30;7.40;;;;;;;13.81;100.00;101061.81;4844641;29;20101;-88
2023/08/04 05:38:58;;;;;;;15.97;6.60;;;;;;;13.93;100.00;101058.31;4844998;29;20424;-88
2023/08/04 05:41:24;;;;;;;15.37;6.83;;;;;;;14.05;100.00;101059.16;4844746;29;20539;-88
2023/08/04 05:43:49;;;;;;;16.48;6.88;;;;;;;14.18;100.00;101058.13;4861892;29;20363;-88
2023/08/04 05:46:15;;;;;;;18.30;6.80;;;;;;;14.31;100.00;101063.38;4861143;29;20067;-88
2023/08/04 05:48:44;;;;;;;11.65;6.80;;;;;;;14.41;100.00;101056.50;4845506;29;20479;-88
2023/08/04 05:51:10;;;;;;;13.40;6.53;;;;;;;14.56;100.00;101063.16;4841362;29;20156;-86
2023/08/04 05:53:35;;;;;;;14.32;6.40;;;;;;;14.68;100.00;101059.66;4815240;29;20128;-89
2023/08/04 05:56:00;;;;;;;14.27;6.80;;;;;;;14.78;100.00;101068.06;4846865;29;20064;-90
2023/08/04 05:58:26;;;;;;;15.77;6.63;;;;;;;14.87;100.00;101072.09;4830249;29;20120;-91
2023/08/04 06:00:51;;;;;;;11.73;6.20;;;;;;;14.98;100.00;101070.41;4830297;29;20287;-92
2023/08/04 06:03:17;;;;;;;13.47;6.33;;;;;;;15.12;100.00;101072.88;4830332;29;20041;-90
2023/08/04 06:05:43;;;;;;;14.90;7.57;;;;;;;15.24;100.00;101079.19;4830226;29;20038;-91
2023/08/04 06:08:09;;;;;;;13.45;6.43;;;;;;;15.32;100.00;101075.25;4830267;29;20034;-89
2023/08/04 06:10:35;;;;;;;17.30;6.88;;;;;;;15.42;100.00;101076.28;4845574;29;20034;-89
2023/08/04 06:13:02;;;;;;;14.70;6.97;;;;;;;15.50;100.00;101072.34;4829553;29;20491;-89
2023/08/04 06:15:28;;;;;;;14.95;6.18;;;;;;;15.54;100.00;101076.22;4846377;29;20459;-89
2023/08/04 06:17:53;;;;;;;14.43;7.18;;;;;;;15.67;100.00;101087.97;4829606;29;20083;-90
2023/08/04 06:20:18;;;;;;;14.00;6.80;;;;;;;15.84;100.00;101082.56;4830116;29;20443;-88
2023/08/04 06:22:46;;;;;;;11.97;7.00;;;;;;;16.02;100.00;101090.59;4829845;29;20030;-89
2023/08/04 06:25:14;;;;;;;13.57;6.45;;;;;;;16.12;100.00;101087.19;4829660;29;20030;-89
2023/08/04 06:27:42;;;;;;;11.57;5.97;;;;;;;16.20;100.00;101091.44;4829809;29;20034;-90
2023/08/04 06:30:08;;;;;;;18.20;7.17;;;;;;;16.35;100.00;101099.09;4844866;29;20040;-89
2023/08/04 06:32:35;;;;;;;12.55;5.45;;;;;;;16.46;100.00;101100.91;4814326;29;20042;-90
2023/08/04 06:35:06;;;;;;;9.82;6.03;;;;;;;16.58;100.00;101109.03;4829068;29;20132;-90
2023/08/04 06:37:31;;;;;;;11.10;6.13;;;;;;;16.78;100.00;101112.09;4845708;29;20084;-90
2023/08/04 06:39:57;;;;;;;12.70;5.43;;;;;;;16.84;100.00;101107.53;4845535;29;20069;-90
2023/08/04 06:42:22;;;;;;;8.57;5.53;;;;;;;16.92;100.00;101107.16;4814145;29;20113;-90
2023/08/04 06:44:48;;;;;;;9.83;4.97;;;;;;;17.02;100.00;101122.91;4845682;29;20122;-90
2023/08/04 06:47:13;;;;;;;11.32;5.85;;;;;;;17.11;100.00;101121.41;4829157;29;20121;-90
2023/08/04 06:49:41;;;;;;;11.37;6.13;;;;;;;17.33;100.00;101124.16;4844300;29;20038;-89
2023/08/04 06:52:08;;;;;;;13.63;5.93;;;;;;;17.51;100.00;101116.72;4843503;29;20061;-89
2023/08/04 06:54:33;;;;;;;8.68;5.25;;;;;;;17.65;100.00;101120.72;4847411;29;20132;-88
2023/08/04 06:57:04;;;;;;;13.47;5.90;;;;;;;17.77;100.00;101123.31;4847168;29;20048;-91
2023/08/04 06:59:30;;;;;;;11.30;5.63;;;;;;;17.82;100.00;101134.38;4833137;29;20140;-90
2023/08/04 07:01:55;;;;;;;10.13;4.93;;;;;;;17.77;100.00;101128.81;4862667;29;20040;-91
2023/08/04 07:04:21;;;;;;;14.43;5.95;;;;;;;17.74;100.00;101126.56;4848053;29;20045;-91
2023/08/04 07:06:46;;;;;;;11.37;4.87;;;;;;;17.85;100.00;101133.84;4847199;29;20493;-90
2023/08/04 07:09:12;;;;;;;8.87;5.07;;;;;;;18.06;100.00;101137.66;4847036;29;20124;-91
2023/08/04 07:11:38;;;;;;;12.43;5.33;;;;;;;18.29;100.00;101137.63;4862477;29;20060;-91
2023/08/04 07:14:03;;;;;;;9.13;5.33;;;;;;;18.38;100.00;101139.63;4862799;29;20739;-91
2023/08/04 07:16:29;;;;;;;10.73;5.00;;;;;;;18.39;100.00;101141.31;4847260;29;20076;-91
2023/08/04 07:18:54;;;;;;;12.63;5.10;;;;;;;18.44;100.00;101150.66;4863449;29;20085;-91
2023/08/04 07:21:20;;;;;;;10.53;4.53;;;;;;;18.36;100.00;101150.03;4832224;29;20065;-91
2023/08/04 07:23:45;;;;;;;10.30;4.93;;;;;;;18.46;100.00;101154.00;4847195;29;20045;-91
2023/08/04 07:26:10;;;;;;;9.98;4.55;;;;;;;18.55;100.00;101144.16;4831845;29;20037;-91
2023/08/04 07:28:37;;;;;;;8.00;4.67;;;;;;;18.70;100.00;101140.72;4847099;29;20037;-91
2023/08/04 07:31:06;;;;;;;8.50;4.13;;;;;;;18.81;100.00;101142.47;4862324;29;20399;-91
2023/08/04 07:33:46;;;;;;;11.33;4.50;;;;;;;19.04;100.00;101146.75;4862610;29;20538;-92
2023/08/04 07:36:16;;;;;;;10.60;4.18;;;;;;;19.26;100.00;101145.78;4848280;29;20045;-91
2023/08/04 07:38:46;;;;;;;7.55;4.07;;;;;;;19.39;99.19;101153.56;4863637;29;20034;-91
2023/08/04 07:41:24;;;;;;;7.53;3.67;;;;;;;19.39;98.78;101145.31;4847490;29;20034;-92
2023/08/04 07:44:08;;;;;;;7.03;3.72;;;;;;;19.33;99.33;101154.66;4863625;29;20026;-92
2023/08/04 07:47:29;;;;;;;6.43;4.03;;;;;;;19.32;100.00;101163.97;4847160;29;20056;-91
2023/08/04 07:50:10;;;;;;;;;;;;;;;;;;;;;
2023/08/04 07:52:48;;;;;;;7.88;3.95;;;;;;;19.22;99.08;101161.16;4864402;29;20045;-92
2023/08/04 07:55:23;;;;;;;7.97;3.63;;;;;;;19.15;99.08;101160.56;4847900;29;20041;-92
2023/08/04 07:58:04;;;;;;;;;;;;;;;;;;;;;
2023/08/04 08:00:36;;;;;;;5.93;2.47;;;;;;;19.40;97.61;101160.75;4848679;29;20045;-92
2023/08/04 08:03:05;;;;;;;5.63;2.42;;;;;;;19.51;96.25;101169.03;4862166;29;20068;-91
2023/08/04 08:05:46;;;;;;;7.32;2.78;;;;;;;19.59;97.55;101168.50;4846212;29;20057;-92
2023/08/04 08:08:19;;;;;;;5.95;2.60;;;;;;;19.60;97.34;101164.69;4862784;29;20034;-92
2023/08/04 08:10:47;;;;;;;8.40;2.75;;;;;;;19.66;94.87;101168.28;4862390;29;20128;-91
2023/08/04 08:19:56;;;;;;;3.42;2.28;;;;;;;19.87;91.74;101170.06;4863033;29;20049;-92
2023/08/04 08:22:24;;;;;;;6.15;2.45;;;;;;;19.92;90.41;101174.75;4845684;29;20049;-91
2023/08/04 08:24:54;;;;;;;4.28;2.25;;;;;;;20.02;90.11;101183.03;4845627;29;20498;-90
2023/08/04 08:27:19;;;;;;;5.83;2.10;;;;;;;20.36;88.47;101188.09;4861304;29;20482;-91
2023/08/04 08:29:45;;;;;;;6.30;2.30;;;;;;;20.64;85.37;101177.66;4846022;29;20034;-91
2023/08/04 08:32:10;;;;;;;5.43;2.40;;;;;;;;;;4862461;29;20509;-91
2023/08/04 08:34:36;;;;;;;5.23;2.23;;;;;;;20.87;84.69;101180.97;4845962;29;20041;-91
2023/08/04 08:37:02;;;;;;;3.63;2.00;;;;;;;20.85;84.59;101190.34;4861283;29;20298;-91
2023/08/04 08:39:29;;;;;;;5.38;2.72;;;;;;;21.07;82.63;101186.47;4845721;29;20402;-91
2023/08/04 08:41:59;;;;;;;3.03;2.13;;;;;;;21.26;81.66;101189.47;4845797;29;20034;-91
2023/08/04 08:44:24;;;;;;;3.75;2.08;;;;;;;21.15;82.08;101187.81;4846539;29;20392;-91
2023/08/04 08:46:52;;;;;;;5.97;2.53;;;;;;;20.96;83.20;101187.56;4846010;29;20082;-91
2023/08/04 08:49:23;;;;;;;5.93;2.60;;;;;;;20.88;84.54;101201.94;4861268;29;20120;-91
2023/08/04 08:51:52;;;;;;;5.18;2.38;;;;;;;20.69;83.42;101202.47;4862600;29;20531;-91
2023/08/04 08:54:18;;;;;;;6.38;3.00;;;;;;;20.62;84.27;101202.69;4861006;29;20071;-90
2023/08/04 08:56:44;;;;;;;4.80;2.45;;;;;;;20.89;83.93;101200.81;4860686;29;20033;-91
2023/08/04 08:59:10;;;;;;;5.13;2.40;;;;;;;21.26;82.16;101200.50;4845423;29;20470;-91
2023/08/04 09:01:35;;;;;;;3.47;2.00;;;;;;;21.32;80.05;101193.88;4845061;29;20041;-91
2023/08/04 09:04:01;;;;;;;3.90;2.00;;;;;;;21.46;79.38;101194.09;4861913;29;20037;-91
2023/08/04 09:06:29;;;;;;;4.18;2.30;;;;;;;21.53;78.83;101196.59;4860346;29;20547;-91
2023/08/04 09:08:55;;;;;;;4.23;2.10;;;;;;;21.66;78.15;101207.06;4845425;29;20086;-91
2023/08/04 09:11:23;;;;;;;4.80;2.50;;;;;;;21.99;76.88;101203.88;4860993;29;20033;-91
2023/08/04 09:13:49;;;;;;;4.23;1.87;;;;;;;22.31;76.10;101200.66;4860388;29;20037;-91
2023/08/04 09:16:15;;;;;;;6.60;2.90;;;;;;;22.04;77.57;101207.44;4845287;29;20041;-91
2023/08/04 09:18:42;;;;;;;5.00;2.10;;;;;;;21.25;80.68;101212.66;4861265;29;20040;-90
2023/08/04 09:21:07;;;;;;;4.38;1.95;;;;;;;20.73;84.95;101217.38;4860079;29;20034;-90
2023/08/04 09:23:47;;;;;;;4.07;2.10;;;;;;;20.57;89.74;101218.44;4861766;29;20033;-90
2023/08/04 09:26:13;;;;;;;5.40;2.10;;;;;;;20.56;91.43;101228.59;4847158;29;20037;-90
2023/08/04 09:28:42;;;;;;;4.40;1.88;;;;;;;20.46;90.30;101226.69;4829687;29;20121;-90
2023/08/04 09:31:09;;;;;;;4.68;2.00;;;;;;;20.54;91.73;101224.50;4860272;29;20044;-91
2023/08/04 09:33:43;;;;;;;4.38;2.25;;;;;;;20.81;92.94;101224.25;4845326;29;20033;-91
2023/08/04 09:36:10;;;;;;;4.87;2.00;;;;;;;21.01;88.61;101212.41;4861085;29;20085;-90
2023/08/04 09:38:38;;;;;;;3.20;1.85;;;;;;;21.25;88.63;101225.63;4845132;29;20036;-90
2023/08/04 09:41:09;;;;;;;5.68;2.20;;;;;;;21.46;86.45;101218.13;4844937;29;20069;-90
2023/08/04 09:43:42;;;;;;;4.03;1.90;;;;;;;21.86;84.33;101230.97;4859974;29;20029;-90
2023/08/04 09:46:07;;;;;;;4.18;2.05;;;;;;;22.26;81.54;101228.31;4846054;29;20041;-91
2023/08/04 09:48:33;;;;;;;4.30;1.87;;;;;;;22.55;78.14;101224.84;4844955;29;20063;-91
2023/08/04 09:51:08;;;;;;;3.33;1.70;;;;;;;22.80;77.49;101223.03;4829447;29;20062;-90
2023/08/04 09:53:36;;;;;;;5.60;2.15;;;;;;;23.10;74.67;101225.56;4860019;29;20038;-91
2023/08/04 09:56:02;;;;;;;4.93;1.92;;;;;;;23.50;74.24;101225.41;4844977;29;20436;-91
2023/08/04 09:58:28;;;;;;;3.05;1.70;;;;;;;23.82;71.92;101221.19;4860117;29;20038;-91
2023/08/04 10:00:54;;;;;;;3.88;1.48;;;;;;;23.96;70.76;101224.91;4844976;29;20025;-91
2023/08/04 10:03:22;;;;;;;6.23;1.73;;;;;;;24.04;71.72;101217.88;4860158;29;20141;-91
2023/08/04 10:05:49;;;;;;;3.15;1.65;;;;;;;24.09;71.86;101230.84;4844500;29;20106;-91
2023/08/04 10:08:15;;;;;;;5.65;1.55;;;;;;;23.79;69.50;101221.78;4861669;29;20038;-91
2023/08/04 10:10:42;;;;;;;5.97;1.90;;;;;;;23.21;70.61;101225.44;4860127;29;20033;-91
2023/08/04 10:13:11;;;;;;;5.13;1.60;;;;;;;22.62;77.11;101238.34;4844473;29;20478;-87
2023/08/04 10:15:39;;;;;;;2.83;1.30;;;;;;;22.09;78.49;101234.22;4860590;29;20502;-90
2023/08/04 10:18:12;;;;;;;3.72;1.58;;;;;;;21.64;84.92;101236.88;4844627;29;20030;-87
2023/08/04 10:20:38;;;;;;;2.88;1.70;;;;;;;21.31;86.39;101232.78;4829703;29;20382;-87
2023/08/04 10:23:04;;;;;;;3.97;1.77;;;;;;;21.38;88.60;101220.34;4860450;29;20029;-87
2023/08/04 10:25:29;;;;;;;5.68;2.95;;;;;;;21.26;88.88;101225.34;4844338;29;20544;-87
2023/08/04 10:27:57;;;;;;;5.67;2.43;;;;;;;21.24;90.67;101233.06;4844326;29;20467;-86
2023/08/04 10:30:24;;;;;;;5.13;1.60;;;;;;;21.22;87.69;101227.00;4859294;29;20474;-87
2023/08/04 10:32:50;;;;;;;5.90;1.80;;;;;;;21.59;90.05;101223.09;4829126;29;20045;-87
2023/08/04 10:35:19;;;;;;;5.20;1.80;;;;;;;22.15;87.85;101227.56;4846204;29;20038;-87
2023/08/04 10:37:50;;;;;;;5.53;2.22;;;;;;;22.64;85.64;101239.72;4864056;29;20108;-87
2023/08/04 10:41:04;;;;;;;3.38;2.00;;;;;;;23.30;82.03;101245.84;4863531;29;20649;-87
2023/08/04 10:43:30;;;;;;;5.03;1.37;;;;;;;23.36;73.16;101236.38;4771250;30;20146;-88
2023/08/04 10:46:03;;;;;;;4.47;1.55;;;;;;;23.73;74.00;101236.81;4836690;29;20515;-88
2023/08/04 10:48:29;;;;;;;3.50;1.80;;;;;;;24.06;70.55;101246.09;4862768;29;20040;-88
2023/08/04 10:50:54;;;;;;;3.58;1.50;;;;;;;24.32;69.12;101237.47;4863985;29;20120;-87
2023/08/04 10:53:20;;;;;;;2.70;1.42;;;;;;;24.47;66.38;101241.97;4846386;29;20474;-87
2023/08/04 10:55:54;;;;;;;5.33;1.50;;;;;;;24.49;68.10;101242.47;4847407;29;20061;-88
2023/08/04 10:58:20;;;;;;;3.25;1.60;;;;;;;24.11;65.76;101248.81;4847858;29;20026;-87
2023/08/04 11:00:46;;;;;;;6.63;1.83;;;;;;;23.98;66.32;101258.69;4863665;29;20041;-87
2023/08/04 11:03:23;;;;;;;4.10;1.73;;;;;;;23.94;70.41;101260.38;4847101;29;20483;-88
2023/08/04 11:05:50;;;;;;;4.85;1.67;;;;;;;24.26;67.86;101252.53;4863643;29;20090;-87
2023/08/04 11:08:17;;;;;;;5.47;1.77;;;;;;;24.21;63.10;101258.94;4832028;29;20052;-87
2023/08/04 11:10:48;;;;;;;6.63;2.03;;;;;;;24.56;64.54;101242.91;4831707;29;20105;-87
2023/08/04 11:13:16;;;;;;;4.40;1.70;;;;;;;24.14;66.30;101258.50;4831760;29;20038;-87
2023/08/04 11:15:42;;;;;;;2.92;1.55;;;;;;;23.24;67.94;101264.44;4831786;29;20034;-88
2023/08/04 11:18:25;;;;;;;3.33;1.10;;;;;;;22.46;74.61;101265.28;4863307;29;20038;-88
2023/08/04 11:20:52;;;;;;;3.05;1.65;;;;;;;22.13;71.59;101265.72;4863462;29;20056;-88
2023/08/04 11:23:29;;;;;;;4.05;1.65;;;;;;;22.21;74.55;101269.81;4861981;29;20059;-88
2023/08/04 11:25:55;;;;;;;3.43;1.80;;;;;;;22.25;74.12;101268.13;4846767;29;20072;-88
2023/08/04 11:28:21;;;;;;;5.03;1.60;;;;;;;22.46;74.92;101271.63;4846470;29;20436;-87
2023/08/04 11:30:47;;;;;;;4.30;1.60;;;;;;;22.77;74.75;101277.78;4862926;29;20073;-88
2023/08/04 11:33:15;;;;;;;2.55;1.30;;;;;;;22.81;70.52;101278.06;4861532;29;20041;-88